Time;durP1;ratioP1;P1;durP2;ratioP2;P2;SDS_P1;SDS_P2;PMS_P1;PMS_P2;Temp;Humidity;BMP_temperature;BMP_pressure;BME280_temperature;BME280_humidity;BME280_pressure;Samples;Min_cycle;Max_cycle;Signal;HPM_P1;HPM_P2
2021/11/10 10:08:12;;;;;;;5.75;4.90;;;7.70;99.90;;;;;;5090880;27;21199;-76
2021/11/10 10:10:39;;;;;;;7.68;5.15;;;7.80;99.90;;;;;;5090892;28;20203;-76
2021/11/10 10:13:06;;;;;;;9.07;4.93;;;7.80;99.90;;;;;;5090839;28;20160;-76
2021/11/10 10:15:34;;;;;;;10.80;4.53;;;7.80;99.90;;;;;;5089608;28;20255;-76
2021/11/10 10:18:01;;;;;;;5.28;4.25;;;7.80;99.90;;;;;;5090823;28;20199;-77
2021/11/10 10:20:40;;;;;;;8.57;4.95;;;7.80;99.90;;;;;;5090650;28;20170;-77
2021/11/10 10:23:12;;;;;;;6.70;4.78;;;7.80;99.90;;;;;;5090693;28;20171;-77
2021/11/10 10:25:48;;;;;;;6.70;5.22;;;7.80;99.90;;;;;;5090618;28;20213;-76
2021/11/10 10:28:16;;;;;;;7.85;4.57;;;7.70;99.90;;;;;;5090591;28;20699;-77
2021/11/10 10:30:45;;;;;;;5.00;4.70;;;7.70;99.90;;;;;;5090479;28;20176;-77
2021/11/10 10:33:17;;;;;;;8.10;4.35;;;7.70;99.90;;;;;;5090474;28;20253;-77
2021/11/10 10:35:44;;;;;;;7.45;4.45;;;7.60;99.90;;;;;;5090501;28;20210;-76
2021/11/10 10:52:31;;;;;;;10.88;4.88;;;7.50;99.90;;;;;;5131750;27;20454;-76
2021/11/10 10:54:56;;;;;;;5.70;4.85;;;7.60;99.90;;;;;;5131719;28;20508;-76
2021/11/10 10:57:22;;;;;;;6.07;5.13;;;7.60;99.90;;;;;;5113291;28;20174;-76
2021/11/10 11:00:07;;;;;;;7.18;6.45;;;7.60;99.90;;;;;;5131616;28;20242;-77
2021/11/10 11:02:34;;;;;;;9.88;5.22;;;7.70;99.90;;;;;;5113294;28;20170;-76
2021/11/10 11:04:59;;;;;;;7.28;5.65;;;7.70;99.90;;;;;;5113107;28;20176;-76
2021/11/10 11:07:30;;;;;;;7.30;5.40;;;7.80;99.90;;;;;;5131478;28;20163;-77
2021/11/10 11:09:55;;;;;;;9.15;4.80;;;7.90;99.90;;;;;;5113132;28;20594;-76
2021/11/10 11:12:27;;;;;;;9.65;5.43;;;7.90;99.90;;;;;;5112953;28;20236;-77
2021/11/10 11:15:24;;;;;;;10.00;6.80;;;8.00;99.90;;;;;;5113277;28;20171;-77
2021/11/10 11:17:49;;;;;;;7.15;5.50;;;8.10;99.90;;;;;;5131309;28;20579;-76
2021/11/10 11:20:19;;;;;;;5.78;5.28;;;8.20;99.90;;;;;;5131241;28;20243;-76
2021/11/10 11:22:51;;;;;;;8.88;5.32;;;8.20;99.90;;;;;;5131217;28;20658;-77
2021/11/10 11:25:25;;;;;;;6.18;4.90;;;8.30;99.90;;;;;;5131109;28;20193;-77
2021/11/10 11:28:03;;;;;;;7.07;5.70;;;8.40;99.90;;;;;;5131115;28;20176;-77
2021/11/10 11:30:31;;;;;;;8.70;5.90;;;8.50;99.90;;;;;;5112861;28;20602;-76
2021/11/10 11:33:00;;;;;;;14.70;5.85;;;8.60;99.90;;;;;;5130839;28;20639;-76
2021/11/10 11:35:26;;;;;;;5.82;5.13;;;9.00;99.90;;;;;;5130909;28;20169;-77
2021/11/10 11:37:54;;;;;;;6.00;5.47;;;8.60;99.90;;;;;;5130970;28;20245;-77
2021/11/10 11:40:22;;;;;;;8.30;4.72;;;8.60;99.90;;;;;;5130697;28;20202;-77
2021/11/10 11:42:49;;;;;;;8.57;5.70;;;8.80;99.90;;;;;;5130834;28;20210;-76
2021/11/10 11:45:17;;;;;;;9.27;5.30;;;8.70;99.90;;;;;;5130786;27;20197;-77
2021/11/10 11:47:46;;;;;;;8.23;5.05;;;8.80;99.90;;;;;;5130728;27;20648;-77
2021/11/10 11:50:12;;;;;;;5.60;4.95;;;8.80;99.90;;;;;;5129086;28;20634;-77
2021/11/10 11:52:38;;;;;;;5.72;4.88;;;8.80;99.90;;;;;;5130766;27;20253;-77
2021/11/10 11:55:27;;;;;;;6.90;5.07;;;8.90;99.90;;;;;;5130657;27;20170;-76
2021/11/10 11:58:03;;;;;;;5.07;4.78;;;8.90;99.90;;;;;;5130601;27;20170;-77
2021/11/10 12:00:50;;;;;;;6.38;4.70;;;8.90;99.90;;;;;;5130464;27;20169;-77
2021/11/10 12:03:25;;;;;;;7.93;5.03;;;9.00;99.90;;;;;;5120064;28;20179;-77
2021/11/10 12:06:14;;;;;;;8.90;5.72;;;8.90;99.90;;;;;;5116739;28;20603;-77
2021/11/10 12:08:45;;;;;;;6.63;5.28;;;9.00;99.90;;;;;;5110837;28;20190;-77
2021/11/10 12:11:23;;;;;;;12.52;5.93;;;9.00;99.90;;;;;;5116531;28;20199;-76
2021/11/10 12:14:10;;;;;;;6.45;5.82;;;8.90;99.90;;;;;;5116552;28;20256;-76
2021/11/10 12:16:55;;;;;;;15.02;5.38;;;8.90;99.90;;;;;;5116494;28;20213;-76
2021/11/10 12:19:33;;;;;;;7.07;5.25;;;8.90;99.90;;;;;;5115198;28;20184;-76
2021/11/10 12:22:18;;;;;;;12.93;5.60;;;8.90;99.90;;;;;;5116468;28;20193;-76
2021/11/10 12:24:52;;;;;;;13.52;6.07;;;8.90;99.90;;;;;;5116385;28;20167;-76
2021/11/10 12:27:34;;;;;;;7.78;5.25;;;9.00;99.90;;;;;;5116294;28;20170;-76
2021/11/10 12:30:19;;;;;;;8.25;5.90;;;9.20;99.90;;;;;;5116334;28;20700;-76
2021/11/10 12:32:58;;;;;;;8.80;5.60;;;9.10;99.90;;;;;;5116195;28;20239;-76
2021/11/10 12:35:30;;;;;;;7.22;5.60;;;9.10;99.90;;;;;;5116218;28;20627;-76
2021/11/10 12:37:57;;;;;;;6.82;5.07;;;9.20;99.90;;;;;;5116145;28;20292;-77
2021/11/10 12:40:36;;;;;;;8.80;5.30;;;9.20;99.90;;;;;;5116018;28;20179;-77
2021/11/10 12:43:02;;;;;;;7.75;5.40;;;9.50;99.90;;;;;;5116087;28;20276;-77
2021/11/10 12:45:36;;;;;;;6.70;5.55;;;9.20;99.90;;;;;;5116007;28;20250;-77
2021/11/10 12:48:04;;;;;;;6.90;5.28;;;9.50;99.90;;;;;;5115965;28;20216;-77
2021/11/10 12:50:33;;;;;;;6.82;6.00;;;9.50;99.90;;;;;;5114252;28;20215;-77
2021/11/10 12:53:00;;;;;;;8.82;4.95;;;9.60;99.90;;;;;;5115855;28;20659;-77
2021/11/10 12:55:30;;;;;;;6.72;5.80;;;9.60;99.90;;;;;;5115806;28;20628;-77
2021/11/10 12:57:58;;;;;;;8.43;5.10;;;9.50;99.90;;;;;;5114427;28;20194;-76
2021/11/10 13:00:25;;;;;;;11.20;5.40;;;9.50;99.90;;;;;;5115685;28;20159;-76
2021/11/10 13:02:55;;;;;;;6.75;5.22;;;9.60;99.90;;;;;;5115569;28;20162;-76
2021/11/10 13:05:27;;;;;;;10.90;7.15;;;9.60;99.90;;;;;;5115595;28;20170;-77
2021/11/10 13:08:04;;;;;;;7.93;5.88;;;9.60;99.90;;;;;;5115521;28;20167;-77
2021/11/10 13:10:33;;;;;;;7.95;4.90;;;9.70;99.90;;;;;;5115435;28;20187;-77
2021/11/10 13:13:06;;;;;;;9.23;6.35;;;9.60;99.90;;;;;;5115423;28;20163;-77
2021/11/10 13:15:31;;;;;;;7.95;5.82;;;9.60;99.90;;;;;;5114285;28;20169;-77
2021/11/10 13:17:57;;;;;;;7.10;6.25;;;9.70;99.90;;;;;;5115289;28;20171;-77
2021/11/10 13:20:22;;;;;;;19.52;6.93;;;10.40;99.90;;;;;;5115218;28;20576;-76
2021/11/10 13:22:53;;;;;;;6.82;5.93;;;9.80;99.90;;;;;;5115187;28;20531;-76
2021/11/10 13:25:27;;;;;;;9.23;5.63;;;9.70;99.90;;;;;;5115153;28;20191;-77
2021/11/10 13:28:05;;;;;;;6.78;6.13;;;9.70;99.90;;;;;;5113994;28;20598;-77
2021/11/10 13:30:50;;;;;;;6.82;5.55;;;9.70;99.90;;;;;;5115015;28;20278;-77
2021/11/10 13:33:39;;;;;;;5.53;5.03;;;9.70;99.90;;;;;;5115027;28;20242;-77
2021/11/10 13:36:18;;;;;;;8.02;5.90;;;9.70;99.90;;;;;;5114925;27;20167;-77
2021/11/10 13:38:48;;;;;;;8.32;5.97;;;9.70;99.90;;;;;;5114949;28;20246;-77
2021/11/10 13:41:48;;;;;;;7.53;5.60;;;9.60;99.90;;;;;;5113473;28;20655;-77
2021/11/10 13:44:19;;;;;;;8.98;5.53;;;9.60;99.90;;;;;;5114822;28;20191;-77
2021/11/10 13:46:56;;;;;;;11.13;6.50;;;9.60;99.90;;;;;;5114739;28;20167;-77
2021/11/10 13:49:27;;;;;;;8.02;5.60;;;9.50;99.90;;;;;;5114756;28;20641;-77
2021/11/10 13:52:15;;;;;;;9.35;6.43;;;9.50;99.90;;;;;;5114430;28;20576;-76
2021/11/10 13:54:48;;;;;;;8.85;5.53;;;9.40;99.90;;;;;;5113408;28;20517;-77
2021/11/10 13:57:20;;;;;;;8.55;5.70;;;9.50;99.90;;;;;;5114485;28;20175;-77
2021/11/10 13:59:48;;;;;;;9.73;6.28;;;9.30;99.90;;;;;;5114437;28;20159;-76
2021/11/10 14:02:16;;;;;;;12.40;5.60;;;9.30;99.90;;;;;;5114503;28;20244;-77
2021/11/10 14:04:49;;;;;;;10.45;5.90;;;9.20;99.90;;;;;;5114422;28;20599;-77
2021/11/10 14:07:37;;;;;;;7.72;6.05;;;9.20;99.90;;;;;;5114383;28;20191;-76
2021/11/10 14:10:06;;;;;;;14.63;5.90;;;9.20;99.90;;;;;;5113946;28;20191;-77
2021/11/10 14:12:34;;;;;;;6.65;6.05;;;9.30;99.90;;;;;;5114265;28;20328;-76
2021/11/10 14:15:09;;;;;;;8.07;6.43;;;9.80;99.90;;;;;;5114265;28;20205;-77
2021/11/10 14:18:01;;;;;;;7.70;6.32;;;9.20;99.90;;;;;;5112973;28;20162;-77
2021/11/10 14:20:39;;;;;;;14.77;6.63;;;9.20;99.90;;;;;;5114115;28;20159;-77
2021/11/10 14:23:15;;;;;;;8.85;6.22;;;9.20;99.90;;;;;;5112865;28;20163;-77
2021/11/10 14:25:45;;;;;;;6.72;6.07;;;9.20;99.90;;;;;;5113885;28;20627;-76
2021/11/10 14:28:13;;;;;;;7.80;6.55;;;9.10;99.90;;;;;;5114034;28;20685;-77
2021/11/10 14:30:41;;;;;;;6.47;5.88;;;9.10;99.90;;;;;;5113954;28;20223;-76
2021/11/10 14:33:07;;;;;;;14.55;6.68;;;9.20;99.90;;;;;;5113963;28;20171;-76
2021/11/10 14:35:51;;;;;;;13.75;5.93;;;9.70;99.90;;;;;;5114090;28;20518;-76
2021/11/10 14:38:26;;;;;;;6.45;5.88;;;9.10;99.90;;;;;;5113934;28;20178;-77
2021/11/10 14:41:02;;;;;;;7.53;5.25;;;9.20;99.90;;;;;;5112494;28;20194;-76
2021/11/10 14:43:36;;;;;;;6.60;5.47;;;9.20;99.90;;;;;;5113897;28;20178;-76
2021/11/10 14:46:19;;;;;;;10.70;7.13;;;9.20;99.90;;;;;;5113900;28;20182;-77
2021/11/10 14:48:47;;;;;;;10.70;6.63;;;9.20;99.90;;;;;;5113802;28;20629;-76
2021/11/10 14:51:15;;;;;;;13.63;8.02;;;9.20;99.90;;;;;;5113499;28;20230;-76
2021/11/10 14:53:58;;;;;;;6.60;5.97;;;9.10;99.90;;;;;;5113890;28;20167;-77
2021/11/10 14:56:24;;;;;;;6.20;5.43;;;9.20;99.90;;;;;;5113730;28;20624;-77
2021/11/10 14:59:01;;;;;;;6.63;5.07;;;9.30;99.90;;;;;;5113732;28;20216;-77
2021/11/10 15:01:27;;;;;;;13.65;6.55;;;9.40;99.90;;;;;;5113748;28;20190;-76
2021/11/10 15:03:58;;;;;;;10.38;6.10;;;9.50;99.90;;;;;;5113634;28;20655;-76
2021/11/10 15:06:36;;;;;;;6.25;5.72;;;9.50;99.90;;;;;;5113657;28;20167;-76
2021/11/10 15:09:06;;;;;;;9.60;5.63;;;9.50;99.90;;;;;;5113615;28;20235;-76
2021/11/10 15:11:41;;;;;;;7.10;6.40;;;9.60;99.90;;;;;;5113496;28;20195;-77
2021/11/10 15:14:29;;;;;;;12.63;6.57;;;9.40;99.90;;;;;;5112206;28;20224;-76
2021/11/10 15:16:55;;;;;;;9.43;6.30;;;9.60;99.90;;;;;;5112309;28;20174;-76
2021/11/10 15:19:20;;;;;;;9.38;5.35;;;9.60;99.90;;;;;;5112228;28;20258;-76
2021/11/10 15:21:46;;;;;;;7.57;6.15;;;9.60;99.90;;;;;;5113521;28;20621;-76
2021/11/10 15:24:12;;;;;;;6.05;5.53;;;9.70;99.90;;;;;;5113520;28;20174;-76
2021/11/10 15:26:39;;;;;;;10.95;6.90;;;9.70;99.90;;;;;;5113395;28;20246;-76
2021/11/10 15:29:08;;;;;;;11.85;6.78;;;9.70;99.90;;;;;;5113376;28;20195;-77
2021/11/10 15:31:33;;;;;;;12.48;7.05;;;9.90;99.90;;;;;;5112018;28;20203;-76
2021/11/10 15:33:59;;;;;;;10.30;7.15;;;9.40;99.90;;;;;;5113451;28;20167;-76
2021/11/10 15:36:25;;;;;;;9.13;6.85;;;9.80;99.90;;;;;;5113337;28;20159;-77
2021/11/10 15:38:52;;;;;;;7.88;6.13;;;9.30;99.90;;;;;;5116322;28;20163;-76
2021/11/10 15:41:20;;;;;;;10.55;7.15;;;9.20;99.90;;;;;;5117065;28;20593;-76
2021/11/10 15:43:46;;;;;;;11.35;6.50;;;9.10;99.90;;;;;;5117185;28;20197;-75
2021/11/10 15:46:13;;;;;;;9.13;6.32;;;9.30;99.90;;;;;;5117156;28;20213;-76
2021/11/10 15:48:39;;;;;;;11.02;6.72;;;8.70;99.90;;;;;;5117153;28;20171;-78
2021/11/10 15:51:05;;;;;;;11.68;6.78;;;8.60;99.90;;;;;;5115455;28;20555;-76
2021/11/10 15:53:31;;;;;;;9.70;6.68;;;8.50;99.90;;;;;;5117030;28;20316;-76
2021/11/10 15:55:57;;;;;;;12.55;6.95;;;8.30;99.90;;;;;;5116832;28;20191;-76
